createdAt,value
2022-12-23T00:01:45.574Z,15.82
2022-12-23T00:04:12.445Z,15.75
2022-12-23T00:06:39.082Z,15.66
2022-12-23T00:09:05.779Z,15.55
2022-12-23T00:11:32.348Z,15.48
2022-12-23T00:14:21.560Z,15.50
2022-12-23T00:16:49.483Z,15.52
2022-12-23T00:19:16.133Z,15.52
2022-12-23T00:21:42.832Z,15.50
2022-12-23T00:24:09.431Z,15.40
2022-12-23T00:26:36.011Z,15.23
2022-12-23T00:29:02.657Z,15.23
2022-12-23T00:31:29.423Z,15.15
2022-12-23T00:33:56.023Z,15.06
2022-12-23T00:36:22.721Z,15.14
2022-12-23T00:39:07.692Z,15.20
2022-12-23T00:41:53.510Z,15.22
2022-12-23T00:44:20.668Z,15.20
2022-12-23T00:46:47.542Z,15.13
2022-12-23T00:49:53.469Z,15.17
2022-12-23T00:52:20.075Z,15.09
2022-12-23T00:54:46.637Z,14.97
2022-12-23T00:57:13.465Z,15.05
2022-12-23T00:59:40.060Z,14.97
2022-12-23T01:02:25.514Z,14.89
2022-12-23T01:05:10.490Z,14.97
2022-12-23T01:07:37.164Z,14.97
2022-12-23T01:10:04.000Z,14.97
2022-12-23T01:12:30.576Z,14.98
2022-12-23T01:14:57.118Z,14.97
2022-12-23T01:17:23.873Z,15.00
2022-12-23T01:19:51.386Z,15.01
2022-12-23T01:22:17.994Z,15.05
2022-12-23T01:24:44.582Z,14.91
2022-12-23T01:27:11.222Z,14.82
2022-12-23T01:29:37.853Z,14.90
2022-12-23T01:32:04.609Z,14.81
2022-12-23T01:34:36.372Z,14.78
2022-12-23T01:37:03.613Z,14.77
2022-12-23T01:39:30.197Z,14.81
2022-12-23T01:42:15.681Z,14.87
2022-12-23T01:44:51.471Z,14.84
2022-12-23T01:47:28.023Z,14.78
2022-12-23T01:50:00.663Z,14.69
2022-12-23T01:52:27.794Z,14.78
2022-12-23T01:54:55.314Z,14.72
2022-12-23T01:57:22.268Z,14.77
2022-12-23T02:00:07.413Z,14.69
2022-12-23T02:02:54.235Z,14.70
2022-12-23T02:05:22.320Z,14.79
2022-12-23T02:08:07.372Z,14.80
2022-12-23T02:10:39.734Z,14.86
2022-12-23T02:13:16.054Z,14.88
2022-12-23T02:16:14.895Z,14.93
2022-12-23T02:18:41.519Z,15.03
2022-12-23T02:21:28.765Z,15.08
2022-12-23T02:23:58.455Z,15.11
2022-12-23T02:26:37.129Z,15.12
2022-12-23T02:29:12.724Z,15.13
2022-12-23T02:31:48.406Z,15.14
2022-12-23T02:34:20.972Z,15.15
2022-12-23T02:37:05.412Z,15.17
2022-12-23T02:39:38.050Z,15.19
2022-12-23T02:42:18.204Z,15.19
2022-12-23T02:44:44.842Z,15.20
2022-12-23T02:47:14.220Z,15.19
2022-12-23T02:49:42.801Z,15.18
2022-12-23T02:52:13.755Z,15.17
2022-12-23T02:54:45.865Z,15.17
2022-12-23T02:57:14.532Z,15.20
2022-12-23T02:59:44.826Z,15.21
2022-12-23T03:02:11.511Z,15.20
2022-12-23T03:04:41.641Z,15.16
2022-12-23T03:07:18.473Z,15.13
2022-12-23T03:09:56.772Z,15.11
2022-12-23T03:12:55.634Z,15.07
2022-12-23T03:15:40.855Z,15.04
2022-12-23T03:18:17.954Z,15.00
2022-12-23T03:20:51.874Z,14.95
2022-12-23T03:23:23.569Z,14.83
2022-12-23T03:25:57.493Z,14.82
2022-12-23T03:28:30.284Z,14.77
2022-12-23T03:30:58.722Z,14.80
2022-12-23T03:33:31.309Z,14.85
2022-12-23T03:36:09.106Z,14.85
2022-12-23T03:38:37.989Z,14.82
2022-12-23T03:41:14.915Z,14.86
2022-12-23T03:43:50.995Z,14.88
2022-12-23T03:46:21.617Z,14.85
2022-12-23T03:48:56.446Z,14.82
2022-12-23T03:51:26.701Z,14.82
2022-12-23T03:53:59.904Z,14.74
2022-12-23T03:56:31.009Z,14.74
2022-12-23T03:58:59.309Z,14.75
2022-12-23T04:01:32.470Z,14.72
2022-12-23T04:04:16.713Z,14.74
2022-12-23T04:06:57.692Z,14.74
2022-12-23T04:09:25.865Z,14.73
2022-12-23T04:11:52.935Z,14.67
2022-12-23T04:14:20.407Z,14.64
2022-12-23T04:16:48.027Z,14.58
2022-12-23T04:19:15.304Z,14.60
2022-12-23T04:21:41.879Z,14.61
2022-12-23T04:24:08.621Z,14.62
2022-12-23T04:26:35.179Z,14.52
2022-12-23T04:29:01.825Z,14.44
2022-12-23T04:31:28.515Z,14.50
2022-12-23T04:33:55.206Z,14.44
2022-12-23T04:36:21.790Z,14.50
2022-12-23T04:38:48.522Z,14.38
2022-12-23T04:41:15.072Z,14.48
2022-12-23T04:43:41.714Z,14.52
2022-12-23T04:46:08.351Z,14.47
2022-12-23T04:48:35.533Z,14.54
2022-12-23T04:51:02.964Z,14.58
2022-12-23T04:53:29.628Z,14.53
2022-12-23T04:55:56.168Z,14.54
2022-12-23T04:58:25.020Z,14.58
2022-12-23T05:01:01.257Z,14.54
2022-12-23T05:03:28.068Z,14.66
2022-12-23T05:05:54.723Z,14.67
2022-12-23T05:08:21.397Z,14.74
2022-12-23T05:10:47.948Z,14.82
2022-12-23T05:13:14.516Z,14.88
2022-12-23T05:15:43.525Z,14.97
2022-12-23T05:18:10.150Z,15.06
2022-12-23T05:20:36.708Z,15.10
2022-12-23T05:23:03.308Z,15.18
2022-12-23T05:25:29.905Z,15.23
2022-12-23T05:27:56.488Z,15.32
2022-12-23T05:30:23.042Z,15.37
2022-12-23T05:32:52.758Z,15.42
2022-12-23T05:35:19.332Z,15.42
2022-12-23T05:37:45.942Z,15.48
2022-12-23T05:40:14.146Z,15.50
2022-12-23T05:42:42.678Z,15.55
2022-12-23T05:45:09.529Z,15.55
2022-12-23T05:47:36.225Z,15.58
2022-12-23T05:50:03.013Z,15.61
2022-12-23T05:52:29.658Z,15.63
2022-12-23T05:54:56.215Z,15.65
2022-12-23T05:57:22.977Z,15.66
2022-12-23T05:59:49.586Z,15.68
2022-12-23T06:02:16.479Z,15.69
2022-12-23T06:04:43.234Z,15.72
2022-12-23T06:07:09.900Z,15.73
2022-12-23T06:09:36.454Z,15.74
2022-12-23T06:12:03.074Z,15.72
2022-12-23T06:14:29.821Z,15.73
2022-12-23T06:16:56.425Z,15.71
2022-12-23T06:19:23.060Z,15.76
2022-12-23T06:21:49.637Z,15.76
2022-12-23T06:24:16.182Z,15.73
2022-12-23T06:26:42.868Z,15.77
2022-12-23T06:29:10.913Z,15.77
2022-12-23T06:31:37.593Z,15.81
2022-12-23T06:34:04.207Z,15.81
2022-12-23T06:36:30.890Z,15.84
2022-12-23T06:38:57.459Z,15.86
2022-12-23T06:41:24.163Z,15.90
2022-12-23T06:43:54.311Z,15.92
2022-12-23T06:46:21.373Z,15.94
2022-12-23T06:48:48.126Z,15.93
2022-12-23T06:51:15.057Z,15.93
2022-12-23T06:53:41.646Z,15.97
2022-12-23T06:56:08.277Z,15.98
2022-12-23T06:58:34.866Z,16.00
2022-12-23T07:01:01.508Z,16.04
2022-12-23T07:03:28.198Z,16.05
2022-12-23T07:05:54.992Z,16.06
2022-12-23T07:08:21.821Z,16.08
2022-12-23T07:10:48.408Z,16.11
2022-12-23T07:13:14.978Z,16.12
2022-12-23T07:15:41.613Z,16.15
2022-12-23T07:18:08.192Z,16.16
2022-12-23T07:20:34.820Z,16.18
2022-12-23T07:23:01.473Z,16.21
2022-12-23T07:25:28.065Z,16.23
2022-12-23T07:27:55.381Z,16.25
2022-12-23T07:30:22.732Z,16.28
2022-12-23T07:32:49.680Z,16.24
2022-12-23T07:35:16.753Z,16.31
2022-12-23T07:37:43.397Z,16.34
2022-12-23T07:40:10.709Z,16.35
2022-12-23T07:42:46.510Z,16.36
2022-12-23T07:45:13.660Z,16.37
2022-12-23T07:47:40.207Z,16.38
2022-12-23T07:50:07.245Z,16.39
2022-12-23T07:52:33.944Z,16.41
2022-12-23T07:55:00.578Z,16.42
2022-12-23T07:57:27.248Z,16.45
2022-12-23T07:59:53.842Z,16.57
2022-12-23T08:02:23.574Z,16.61
2022-12-23T08:04:50.408Z,16.74
2022-12-23T08:07:17.027Z,16.77
2022-12-23T08:09:43.663Z,16.81
2022-12-23T08:12:10.215Z,16.85
2022-12-23T08:14:36.956Z,16.96
2022-12-23T08:17:03.614Z,17.04
2022-12-23T08:19:30.235Z,17.07
2022-12-23T08:21:56.802Z,17.08
2022-12-23T08:24:23.395Z,17.25
2022-12-23T08:26:49.898Z,17.29
2022-12-23T08:29:16.625Z,17.25
2022-12-23T08:31:43.336Z,17.21
2022-12-23T08:34:10.680Z,17.31
2022-12-23T08:36:37.244Z,17.38
2022-12-23T08:39:05.530Z,17.43
2022-12-23T08:41:35.556Z,17.46
2022-12-23T08:44:02.166Z,17.55
2022-12-23T08:46:28.972Z,17.64
2022-12-23T08:48:55.913Z,17.67
2022-12-23T08:51:24.412Z,17.78
2022-12-23T08:53:56.179Z,17.88
2022-12-23T08:56:25.669Z,18.00
2022-12-23T08:58:53.236Z,18.07
2022-12-23T09:01:22.526Z,18.17
2022-12-23T09:03:49.841Z,18.20
2022-12-23T09:06:28.263Z,18.33
2022-12-23T09:08:55.874Z,18.43
2022-12-23T09:11:23.375Z,18.56
2022-12-23T09:13:50.458Z,18.63
2022-12-23T09:16:17.626Z,18.74
2022-12-23T09:18:44.376Z,18.85
2022-12-23T09:21:12.245Z,18.86
2022-12-23T09:23:38.907Z,18.99
2022-12-23T09:26:05.866Z,18.97
2022-12-23T09:28:32.812Z,18.98
2022-12-23T09:31:06.096Z,19.05
2022-12-23T09:33:32.818Z,19.03
2022-12-23T09:35:59.932Z,19.14
2022-12-23T09:38:26.516Z,19.16
2022-12-23T09:40:53.150Z,19.19
2022-12-23T09:43:32.808Z,19.11
2022-12-23T09:46:06.301Z,19.13
2022-12-23T09:48:35.942Z,19.20
2022-12-23T09:51:03.503Z,19.26
2022-12-23T09:53:45.068Z,19.33
2022-12-23T09:56:47.112Z,19.32
2022-12-23T09:59:29.170Z,19.34
2022-12-23T10:02:14.482Z,19.39
2022-12-23T10:04:41.163Z,19.41
2022-12-23T10:07:13.704Z,19.47
2022-12-23T10:09:44.047Z,19.48
2022-12-23T10:12:23.603Z,19.52
2022-12-23T10:14:55.806Z,19.62
2022-12-23T10:17:38.272Z,19.72
2022-12-23T10:20:05.983Z,19.81
2022-12-23T10:22:41.588Z,19.89
2022-12-23T10:25:14.252Z,19.98
2022-12-23T10:27:42.560Z,20.08
2022-12-23T10:30:42.678Z,20.07
2022-12-23T10:33:00.599Z,20.15
2022-12-23T10:35:45.934Z,20.17
2022-12-23T10:38:24.252Z,20.22
2022-12-23T10:41:05.388Z,20.30
2022-12-23T10:43:54.684Z,20.32
2022-12-23T10:46:39.498Z,20.37
2022-12-23T10:49:20.550Z,20.46
2022-12-23T10:51:52.859Z,20.53
2022-12-23T10:54:25.773Z,20.56
2022-12-23T10:56:53.442Z,20.60
2022-12-23T10:59:23.096Z,20.65
2022-12-23T11:01:53.167Z,20.73
2022-12-23T11:04:32.500Z,20.77
2022-12-23T11:07:26.242Z,20.88
2022-12-23T11:09:48.142Z,20.95
2022-12-23T11:12:15.040Z,20.93
2022-12-23T11:14:50.472Z,20.95
2022-12-23T11:17:24.387Z,20.81
2022-12-23T11:20:06.069Z,20.88
2022-12-23T11:22:32.667Z,20.88
2022-12-23T11:25:18.218Z,20.89
2022-12-23T11:27:45.915Z,20.99
2022-12-23T11:30:19.038Z,21.00
2022-12-23T11:32:45.706Z,21.13
2022-12-23T11:35:23.929Z,21.23
2022-12-23T11:37:50.628Z,21.18
2022-12-23T11:40:25.761Z,21.17
2022-12-23T11:43:00.990Z,21.21
2022-12-23T11:45:29.181Z,21.26
2022-12-23T11:47:56.340Z,21.27
2022-12-23T11:50:30.651Z,21.36
2022-12-23T11:53:09.154Z,21.39
2022-12-23T11:55:36.004Z,21.48
2022-12-23T11:58:03.119Z,21.47
2022-12-23T12:00:36.888Z,21.54
2022-12-23T12:03:04.272Z,21.62
2022-12-23T12:05:41.399Z,21.65
2022-12-23T12:08:15.420Z,21.68
2022-12-23T12:10:42.563Z,21.77
2022-12-23T12:13:23.003Z,21.79
2022-12-23T12:15:59.118Z,21.80
2022-12-23T12:18:26.270Z,21.87
2022-12-23T12:20:59.054Z,21.89
2022-12-23T12:23:29.960Z,21.88
2022-12-23T12:26:00.808Z,21.83
2022-12-23T12:28:47.569Z,21.84
2022-12-23T12:31:23.563Z,21.89
2022-12-23T12:33:54.119Z,21.92
2022-12-23T12:36:28.799Z,21.94
2022-12-23T12:38:57.951Z,21.94
2022-12-23T12:41:28.663Z,21.84
2022-12-23T12:44:01.175Z,21.87
2022-12-23T12:46:34.172Z,21.84
2022-12-23T12:49:03.772Z,21.80
2022-12-23T12:51:30.305Z,21.82
2022-12-23T12:54:01.113Z,21.87
2022-12-23T12:56:35.213Z,21.85
2022-12-23T12:59:01.861Z,21.83
2022-12-23T13:01:37.592Z,21.72
2022-12-23T13:04:10.317Z,21.80
2022-12-23T13:06:38.114Z,21.68
2022-12-23T13:09:24.888Z,21.78
2022-12-23T13:12:10.268Z,21.74
2022-12-23T13:15:02.655Z,21.81
2022-12-23T13:17:33.779Z,21.78
2022-12-23T13:20:09.310Z,21.82
2022-12-23T13:22:37.165Z,21.80
2022-12-23T13:25:09.667Z,21.84
2022-12-23T13:27:36.353Z,21.82
2022-12-23T13:30:09.080Z,21.92
2022-12-23T13:32:44.932Z,21.95
2022-12-23T13:35:14.478Z,21.92
2022-12-23T13:37:43.710Z,21.98
2022-12-23T13:40:30.257Z,22.04
2022-12-23T13:42:59.986Z,22.03
2022-12-23T13:45:31.752Z,22.06
2022-12-23T13:48:16.548Z,22.11
2022-12-23T13:50:50.511Z,22.09
2022-12-23T13:53:30.208Z,22.10
2022-12-23T13:56:06.898Z,22.08
2022-12-23T13:58:34.025Z,22.09
2022-12-23T14:01:09.808Z,22.11
2022-12-23T14:03:37.716Z,22.09
2022-12-23T14:06:22.542Z,22.13
2022-12-23T14:08:50.604Z,22.11
2022-12-23T14:11:30.931Z,22.15
2022-12-23T14:13:57.626Z,22.15
2022-12-23T14:16:24.253Z,22.17
2022-12-23T14:19:09.701Z,22.19
2022-12-23T14:21:54.839Z,22.13
2022-12-23T14:24:36.500Z,22.16
2022-12-23T14:27:17.154Z,22.04
2022-12-23T14:29:46.802Z,22.11
2022-12-23T14:32:19.957Z,22.14
2022-12-23T14:35:14.430Z,22.13
2022-12-23T14:37:41.125Z,22.13
2022-12-23T14:40:26.933Z,22.15
2022-12-23T14:43:13.442Z,22.15
2022-12-23T14:45:43.654Z,22.13
2022-12-23T14:48:28.849Z,22.15
2022-12-23T14:50:59.589Z,22.18
2022-12-23T14:53:27.484Z,22.16
2022-12-23T14:56:12.486Z,22.18
2022-12-23T14:58:41.853Z,22.20
2022-12-23T15:01:10.559Z,22.19
2022-12-23T15:03:41.723Z,22.13
2022-12-23T15:06:08.437Z,22.15
2022-12-23T15:08:40.748Z,22.01
2022-12-23T15:11:17.908Z,21.96
2022-12-23T15:13:44.566Z,21.94
2022-12-23T15:16:15.874Z,22.03
2022-12-23T15:18:52.385Z,22.01
2022-12-23T15:21:19.410Z,22.01
2022-12-23T15:23:50.274Z,22.02
2022-12-23T15:26:17.172Z,22.01
2022-12-23T15:28:43.742Z,21.89
2022-12-23T15:31:25.082Z,21.83
2022-12-23T15:34:02.788Z,21.70
2022-12-23T15:36:35.562Z,21.84
2022-12-23T15:39:05.798Z,21.85
2022-12-23T15:41:32.439Z,21.82
2022-12-23T15:44:01.663Z,21.80
2022-12-23T15:46:30.450Z,21.67
2022-12-23T15:48:57.846Z,21.69
2022-12-23T15:54:30.859Z,21.65
2022-12-23T15:56:58.928Z,21.64
2022-12-23T15:59:27.779Z,21.55
2022-12-23T16:01:55.061Z,21.52
2022-12-23T16:04:29.063Z,21.42
2022-12-23T16:06:55.994Z,21.48
2022-12-23T16:09:25.655Z,21.47
2022-12-23T16:12:19.609Z,21.44
2022-12-23T16:14:57.038Z,21.40
2022-12-23T16:17:36.917Z,21.35
2022-12-23T16:20:24.033Z,21.33
2022-12-23T16:22:56.596Z,21.27
2022-12-23T16:25:24.624Z,21.15
2022-12-23T16:28:06.155Z,21.16
2022-12-23T16:30:34.117Z,21.09
2022-12-23T16:33:06.948Z,21.09
2022-12-23T16:35:35.683Z,21.04
2022-12-23T16:38:18.841Z,20.95
2022-12-23T16:40:46.936Z,20.92
2022-12-23T16:43:14.341Z,20.91
2022-12-23T16:45:41.559Z,20.90
2022-12-23T16:48:19.871Z,20.70
2022-12-23T16:50:46.609Z,20.61
2022-12-23T16:53:13.599Z,20.51
2022-12-23T16:55:46.241Z,20.48
2022-12-23T16:58:16.991Z,20.37
2022-12-23T17:00:43.602Z,20.33
2022-12-23T17:03:15.116Z,20.36
2022-12-23T17:05:41.911Z,20.26
2022-12-23T17:08:09.377Z,20.23
2022-12-23T17:10:36.498Z,20.23
2022-12-23T17:13:03.604Z,20.06
2022-12-23T17:15:30.202Z,20.03
2022-12-23T17:17:56.795Z,20.05
2022-12-23T17:20:23.984Z,19.96
2022-12-23T17:22:54.927Z,19.95
2022-12-23T17:25:26.324Z,19.93
2022-12-23T17:27:53.691Z,19.93
2022-12-23T17:30:24.571Z,19.95
2022-12-23T17:32:54.240Z,19.95
2022-12-23T17:35:21.561Z,19.95
2022-12-23T17:37:48.195Z,19.80
2022-12-23T17:40:15.769Z,19.76
2022-12-23T17:42:42.684Z,19.87
2022-12-23T17:45:21.470Z,19.92
2022-12-23T17:47:48.127Z,19.87
2022-12-23T17:50:15.233Z,19.87
2022-12-23T17:52:41.892Z,19.82
2022-12-23T17:55:20.273Z,19.85
2022-12-23T17:57:46.974Z,19.76
2022-12-23T18:00:17.270Z,19.77
2022-12-23T18:02:49.270Z,19.80
2022-12-23T18:05:23.940Z,19.78
2022-12-23T18:07:51.131Z,19.81
2022-12-23T18:10:19.165Z,19.80
2022-12-23T18:12:46.949Z,19.64
2022-12-23T18:15:24.003Z,19.56
2022-12-23T18:17:51.278Z,19.52
2022-12-23T18:20:19.615Z,19.58
2022-12-23T18:22:47.434Z,19.61
2022-12-23T18:25:18.678Z,19.61
2022-12-23T18:27:45.741Z,19.45
2022-12-23T18:30:12.806Z,19.37
2022-12-23T18:32:43.058Z,19.49
2022-12-23T18:35:26.584Z,19.40
2022-12-23T18:37:53.552Z,19.39
2022-12-23T18:40:20.599Z,19.32
2022-12-23T18:42:47.217Z,19.30
2022-12-23T18:45:23.931Z,19.31
2022-12-23T18:47:50.641Z,19.26
2022-12-23T18:50:17.216Z,19.26
2022-12-23T18:52:43.863Z,19.34
2022-12-23T18:55:12.245Z,19.37
2022-12-23T18:57:39.089Z,19.36
2022-12-23T19:00:06.506Z,19.32
2022-12-23T19:02:33.185Z,19.20
2022-12-23T19:04:59.839Z,19.21
2022-12-23T19:07:26.477Z,19.16
2022-12-23T19:09:53.069Z,19.23
2022-12-23T19:12:19.678Z,19.11
2022-12-23T19:14:46.227Z,19.12
2022-12-23T19:17:12.941Z,19.14
2022-12-23T19:19:39.649Z,19.19
2022-12-23T19:22:06.306Z,19.10
2022-12-23T19:24:32.864Z,19.18
2022-12-23T19:26:59.529Z,19.13
2022-12-23T19:29:26.069Z,19.19
2022-12-23T19:31:52.726Z,19.15
2022-12-23T19:34:19.278Z,19.15
2022-12-23T19:36:46.050Z,19.15
2022-12-23T19:39:16.604Z,19.13
2022-12-23T19:41:43.584Z,19.15
2022-12-23T19:44:10.187Z,19.08
2022-12-23T19:46:37.000Z,19.15
2022-12-23T19:49:03.562Z,19.18
2022-12-23T19:51:30.186Z,19.15
2022-12-23T19:53:56.774Z,19.17
2022-12-23T19:56:23.590Z,19.11
2022-12-23T19:58:50.229Z,18.98
2022-12-23T20:01:18.423Z,19.03
2022-12-23T20:03:46.086Z,18.98
2022-12-23T20:06:17.352Z,19.08
2022-12-23T20:08:44.608Z,18.98
2022-12-23T20:11:12.713Z,18.98
2022-12-23T20:13:39.318Z,19.01
2022-12-23T20:16:06.542Z,18.98
2022-12-23T20:18:33.512Z,18.99
2022-12-23T20:21:01.172Z,19.00
2022-12-23T20:23:28.647Z,18.95
2022-12-23T20:25:55.493Z,18.76
2022-12-23T20:28:22.271Z,18.75
2022-12-23T20:30:48.904Z,18.83
2022-12-23T20:33:15.642Z,18.85
2022-12-23T20:35:42.225Z,18.76
2022-12-23T20:38:08.846Z,18.53
2022-12-23T20:40:37.812Z,18.59
2022-12-23T20:43:08.135Z,18.52
2022-12-23T20:45:41.599Z,18.50
2022-12-23T20:48:08.217Z,18.54
2022-12-23T20:50:37.549Z,18.48
2022-12-23T20:53:04.219Z,18.43
2022-12-23T20:55:31.786Z,18.42
2022-12-23T20:58:18.437Z,18.30
2022-12-23T21:00:45.063Z,18.18
2022-12-23T21:03:11.662Z,18.07
2022-12-23T21:05:38.285Z,18.03
2022-12-23T21:08:04.960Z,18.00
2022-12-23T21:10:31.588Z,18.05
2022-12-23T21:12:58.400Z,18.01
2022-12-23T21:15:25.099Z,18.02
2022-12-23T21:17:51.666Z,18.00
2022-12-23T21:20:18.342Z,18.09
2022-12-23T21:22:44.920Z,18.01
2022-12-23T21:25:11.493Z,18.16
2022-12-23T21:27:38.173Z,18.23
2022-12-23T21:30:05.272Z,18.28
2022-12-23T21:32:31.806Z,18.28
2022-12-23T21:35:01.636Z,18.32
2022-12-23T21:37:28.912Z,18.34
2022-12-23T21:39:55.458Z,18.24
2022-12-23T21:42:22.030Z,18.28
2022-12-23T21:44:48.591Z,18.31
2022-12-23T21:47:15.264Z,18.22
2022-12-23T21:49:43.838Z,18.26
2022-12-23T21:52:10.563Z,18.27
2022-12-23T21:54:37.175Z,18.28
2022-12-23T21:57:03.883Z,18.12
2022-12-23T21:59:34.896Z,18.19
2022-12-23T22:02:02.106Z,18.22
2022-12-23T22:04:28.631Z,18.24
2022-12-23T22:06:55.249Z,18.27
2022-12-23T22:09:21.909Z,18.28
2022-12-23T22:11:48.732Z,18.27
2022-12-23T22:14:16.591Z,18.26
2022-12-23T22:16:43.340Z,18.25
2022-12-23T22:19:11.143Z,18.20
2022-12-23T22:21:39.591Z,18.12
2022-12-23T22:24:06.451Z,18.16
2022-12-23T22:26:33.325Z,18.15
2022-12-23T22:29:01.777Z,18.15
2022-12-23T22:31:37.571Z,18.15
2022-12-23T22:34:04.735Z,18.11
2022-12-23T22:36:31.505Z,18.12
2022-12-23T22:38:59.235Z,18.02
2022-12-23T22:41:28.030Z,18.01
2022-12-23T22:43:55.028Z,18.04
2022-12-23T22:46:21.986Z,17.98
2022-12-23T22:48:48.766Z,18.02
2022-12-23T22:51:16.929Z,17.99
2022-12-23T22:53:44.011Z,17.99
2022-12-23T22:56:11.941Z,18.00
2022-12-23T22:58:38.889Z,17.96
2022-12-23T23:01:05.581Z,17.96
2022-12-23T23:03:32.582Z,17.92
2022-12-23T23:06:02.057Z,17.91
2022-12-23T23:08:29.406Z,17.90
2022-12-23T23:10:57.267Z,17.86
2022-12-23T23:13:25.169Z,17.86
2022-12-23T23:15:51.695Z,17.82
2022-12-23T23:18:18.342Z,17.73
2022-12-23T23:20:44.955Z,17.73
2022-12-23T23:23:11.652Z,17.70
2022-12-23T23:25:38.405Z,17.69
2022-12-23T23:28:05.105Z,17.64
2022-12-23T23:30:31.666Z,17.60
2022-12-23T23:32:58.279Z,17.53
2022-12-23T23:35:24.836Z,17.49
2022-12-23T23:37:51.505Z,17.58
2022-12-23T23:40:18.069Z,17.58
2022-12-23T23:42:44.739Z,17.61
2022-12-23T23:45:11.351Z,17.58
2022-12-23T23:47:37.981Z,17.49
2022-12-23T23:50:05.171Z,17.47
2022-12-23T23:52:31.733Z,17.52
2022-12-23T23:54:58.304Z,17.46
2022-12-23T23:57:26.395Z,17.46
2022-12-23T23:59:53.253Z,17.44
